sensor_id;sensor_type;location;lat;lon;timestamp;temperature;humidity
18456;DHT22;9357;49.900;8.208;2024-01-30T00:00:45;4.00;99.90
18456;DHT22;9357;49.900;8.208;2024-01-30T00:02:18;4.00;99.90
18456;DHT22;9357;49.900;8.208;2024-01-30T00:03:50;4.00;99.90
18456;DHT22;9357;49.900;8.208;2024-01-30T00:05:23;4.00;99.90
18456;DHT22;9357;49.900;8.208;2024-01-30T00:06:56;4.00;99.90
18456;DHT22;9357;49.900;8.208;2024-01-30T00:08:29;4.00;99.90
18456;DHT22;9357;49.900;8.208;2024-01-30T00:10:01;4.00;99.90
18456;DHT22;9357;49.900;8.208;2024-01-30T00:11:33;4.00;99.90
18456;DHT22;9357;49.900;8.208;2024-01-30T00:13:05;4.00;99.90
18456;DHT22;9357;49.900;8.208;2024-01-30T00:14:38;4.00;99.90
18456;DHT22;9357;49.900;8.208;2024-01-30T00:16:20;4.00;99.90
18456;DHT22;9357;49.900;8.208;2024-01-30T00:17:53;3.90;99.90
18456;DHT22;9357;49.900;8.208;2024-01-30T00:19:24;3.90;99.90
18456;DHT22;9357;49.900;8.208;2024-01-30T00:20:57;3.90;99.90
18456;DHT22;9357;49.900;8.208;2024-01-30T00:22:30;3.80;99.90
18456;DHT22;9357;49.900;8.208;2024-01-30T00:24:04;3.90;99.90
18456;DHT22;9357;49.900;8.208;2024-01-30T00:25:36;3.80;99.90
18456;DHT22;9357;49.900;8.208;2024-01-30T00:27:08;3.80;99.90
18456;DHT22;9357;49.900;8.208;2024-01-30T00:28:40;3.70;99.90
18456;DHT22;9357;49.900;8.208;2024-01-30T00:30:14;3.80;99.90
18456;DHT22;9357;49.900;8.208;2024-01-30T00:31:46;3.70;99.90
18456;DHT22;9357;49.900;8.208;2024-01-30T00:33:18;3.70;99.90
18456;DHT22;9357;49.900;8.208;2024-01-30T00:34:50;3.70;99.90
18456;DHT22;9357;49.900;8.208;2024-01-30T00:36:23;3.70;99.90
18456;DHT22;9357;49.900;8.208;2024-01-30T00:37:56;3.70;99.90
18456;DHT22;9357;49.900;8.208;2024-01-30T00:39:29;3.70;99.90
18456;DHT22;9357;49.900;8.208;2024-01-30T00:41:01;3.70;99.90
18456;DHT22;9357;49.900;8.208;2024-01-30T00:42:34;3.70;99.90
18456;DHT22;9357;49.900;8.208;2024-01-30T00:44:06;3.70;99.90
18456;DHT22;9357;49.900;8.208;2024-01-30T00:45:38;3.70;99.90
18456;DHT22;9357;49.900;8.208;2024-01-30T00:47:10;3.70;99.90
18456;DHT22;9357;49.900;8.208;2024-01-30T00:48:43;3.70;99.90
18456;DHT22;9357;49.900;8.208;2024-01-30T00:50:15;3.70;99.90
18456;DHT22;9357;49.900;8.208;2024-01-30T00:51:48;3.70;99.90
18456;DHT22;9357;49.900;8.208;2024-01-30T00:53:21;3.70;99.90
18456;DHT22;9357;49.900;8.208;2024-01-30T00:54:53;3.70;99.90
18456;DHT22;9357;49.900;8.208;2024-01-30T00:56:25;3.70;99.90
18456;DHT22;9357;49.900;8.208;2024-01-30T00:57:58;3.70;99.90
18456;DHT22;9357;49.900;8.208;2024-01-30T00:59:30;3.70;99.90
18456;DHT22;9357;49.900;8.208;2024-01-30T01:01:03;3.70;99.90
18456;DHT22;9357;49.900;8.208;2024-01-30T01:02:35;3.70;99.90
18456;DHT22;9357;49.900;8.208;2024-01-30T01:04:08;3.70;99.90
18456;DHT22;9357;49.900;8.208;2024-01-30T01:05:39;3.60;99.90
18456;DHT22;9357;49.900;8.208;2024-01-30T01:07:12;3.60;99.90
18456;DHT22;9357;49.900;8.208;2024-01-30T01:08:45;3.60;99.90
18456;DHT22;9357;49.900;8.208;2024-01-30T01:10:18;3.60;99.90
18456;DHT22;9357;49.900;8.208;2024-01-30T01:11:50;3.60;99.90
18456;DHT22;9357;49.900;8.208;2024-01-30T01:13:23;3.60;99.90
18456;DHT22;9357;49.900;8.208;2024-01-30T01:14:54;3.60;99.90
18456;DHT22;9357;49.900;8.208;2024-01-30T01:16:27;3.60;99.90
18456;DHT22;9357;49.900;8.208;2024-01-30T01:17:59;3.50;99.90
18456;DHT22;9357;49.900;8.208;2024-01-30T01:19:32;3.60;99.90
18456;DHT22;9357;49.900;8.208;2024-01-30T01:21:05;3.50;99.90
18456;DHT22;9357;49.900;8.208;2024-01-30T01:22:37;3.50;99.90
18456;DHT22;9357;49.900;8.208;2024-01-30T01:24:12;3.50;99.90
18456;DHT22;9357;49.900;8.208;2024-01-30T01:25:44;3.40;99.90
18456;DHT22;9357;49.900;8.208;2024-01-30T01:27:16;3.30;99.90
18456;DHT22;9357;49.900;8.208;2024-01-30T01:28:48;3.30;99.90
18456;DHT22;9357;49.900;8.208;2024-01-30T01:30:21;3.30;99.90
18456;DHT22;9357;49.900;8.208;2024-01-30T01:31:54;3.30;99.90
18456;DHT22;9357;49.900;8.208;2024-01-30T01:33:26;3.30;99.90
18456;DHT22;9357;49.900;8.208;2024-01-30T01:34:58;3.20;99.90
18456;DHT22;9357;49.900;8.208;2024-01-30T01:36:30;3.30;99.90
18456;DHT22;9357;49.900;8.208;2024-01-30T01:38:03;3.30;99.90
18456;DHT22;9357;49.900;8.208;2024-01-30T01:39:36;3.30;99.90
18456;DHT22;9357;49.900;8.208;2024-01-30T01:41:09;3.30;99.90
18456;DHT22;9357;49.900;8.208;2024-01-30T01:42:41;3.30;99.90
18456;DHT22;9357;49.900;8.208;2024-01-30T01:44:14;3.30;99.90
18456;DHT22;9357;49.900;8.208;2024-01-30T01:45:45;3.30;99.90
18456;DHT22;9357;49.900;8.208;2024-01-30T01:47:18;3.30;99.90
18456;DHT22;9357;49.900;8.208;2024-01-30T01:48:50;3.30;99.90
18456;DHT22;9357;49.900;8.208;2024-01-30T01:50:23;3.30;99.90
18456;DHT22;9357;49.900;8.208;2024-01-30T01:51:57;3.30;99.90
18456;DHT22;9357;49.900;8.208;2024-01-30T01:53:30;3.40;99.90
18456;DHT22;9357;49.900;8.208;2024-01-30T01:55:04;3.40;99.90
18456;DHT22;9357;49.900;8.208;2024-01-30T01:56:38;3.40;99.90
18456;DHT22;9357;49.900;8.208;2024-01-30T01:58:12;3.30;99.90
18456;DHT22;9357;49.900;8.208;2024-01-30T01:59:44;3.30;99.90
18456;DHT22;9357;49.900;8.208;2024-01-30T02:01:19;3.30;99.90
18456;DHT22;9357;49.900;8.208;2024-01-30T02:02:52;3.30;99.90
18456;DHT22;9357;49.900;8.208;2024-01-30T02:04:26;3.30;99.90
18456;DHT22;9357;49.900;8.208;2024-01-30T02:05:58;3.30;99.90
18456;DHT22;9357;49.900;8.208;2024-01-30T02:07:31;3.30;99.90
18456;DHT22;9357;49.900;8.208;2024-01-30T02:09:03;3.30;99.90
18456;DHT22;9357;49.900;8.208;2024-01-30T02:10:38;3.30;99.90
18456;DHT22;9357;49.900;8.208;2024-01-30T02:12:10;3.30;99.90
18456;DHT22;9357;49.900;8.208;2024-01-30T02:13:42;3.30;99.90
18456;DHT22;9357;49.900;8.208;2024-01-30T02:15:15;3.30;99.90
18456;DHT22;9357;49.900;8.208;2024-01-30T02:16:47;3.20;99.90
18456;DHT22;9357;49.900;8.208;2024-01-30T02:18:20;3.20;99.90
18456;DHT22;9357;49.900;8.208;2024-01-30T02:19:52;3.20;99.90
18456;DHT22;9357;49.900;8.208;2024-01-30T02:21:26;3.20;99.90
18456;DHT22;9357;49.900;8.208;2024-01-30T02:22:58;3.20;99.90
18456;DHT22;9357;49.900;8.208;2024-01-30T02:24:32;3.20;99.90
18456;DHT22;9357;49.900;8.208;2024-01-30T02:26:04;3.20;99.90
18456;DHT22;9357;49.900;8.208;2024-01-30T02:27:37;3.30;99.90
18456;DHT22;9357;49.900;8.208;2024-01-30T02:29:09;3.20;99.90
18456;DHT22;9357;49.900;8.208;2024-01-30T02:30:43;3.20;99.90
18456;DHT22;9357;49.900;8.208;2024-01-30T02:32:16;3.30;99.90
18456;DHT22;9357;49.900;8.208;2024-01-30T02:33:47;3.30;99.90
18456;DHT22;9357;49.900;8.208;2024-01-30T02:35:20;3.30;99.90
18456;DHT22;9357;49.900;8.208;2024-01-30T02:36:53;3.30;99.90
18456;DHT22;9357;49.900;8.208;2024-01-30T02:38:26;3.30;99.90
18456;DHT22;9357;49.900;8.208;2024-01-30T02:39:58;3.30;99.90
18456;DHT22;9357;49.900;8.208;2024-01-30T02:41:31;3.30;99.90
18456;DHT22;9357;49.900;8.208;2024-01-30T02:43:04;3.30;99.90
18456;DHT22;9357;49.900;8.208;2024-01-30T02:44:36;3.20;99.90
18456;DHT22;9357;49.900;8.208;2024-01-30T02:46:08;3.20;99.90
18456;DHT22;9357;49.900;8.208;2024-01-30T02:47:41;3.20;99.90
18456;DHT22;9357;49.900;8.208;2024-01-30T02:49:13;3.20;99.90
18456;DHT22;9357;49.900;8.208;2024-01-30T02:50:46;3.10;99.90
18456;DHT22;9357;49.900;8.208;2024-01-30T02:52:19;3.10;99.90
18456;DHT22;9357;49.900;8.208;2024-01-30T02:53:52;3.10;99.90
18456;DHT22;9357;49.900;8.208;2024-01-30T02:55:24;3.10;99.90
18456;DHT22;9357;49.900;8.208;2024-01-30T02:56:57;3.20;99.90
18456;DHT22;9357;49.900;8.208;2024-01-30T02:58:29;3.10;99.90
18456;DHT22;9357;49.900;8.208;2024-01-30T03:00:02;3.10;99.90
18456;DHT22;9357;49.900;8.208;2024-01-30T03:01:42;3.10;99.90
18456;DHT22;9357;49.900;8.208;2024-01-30T03:03:15;3.10;99.90
18456;DHT22;9357;49.900;8.208;2024-01-30T03:04:48;3.10;99.90
18456;DHT22;9357;49.900;8.208;2024-01-30T03:06:19;3.10;99.90
18456;DHT22;9357;49.900;8.208;2024-01-30T03:07:55;3.10;99.90
18456;DHT22;9357;49.900;8.208;2024-01-30T03:09:27;3.10;99.90
18456;DHT22;9357;49.900;8.208;2024-01-30T03:11:00;3.10;99.90
18456;DHT22;9357;49.900;8.208;2024-01-30T03:12:32;3.10;99.90
18456;DHT22;9357;49.900;8.208;2024-01-30T03:14:04;3.10;99.90
18456;DHT22;9357;49.900;8.208;2024-01-30T03:15:36;3.10;99.90
18456;DHT22;9357;49.900;8.208;2024-01-30T03:17:09;3.10;99.90
18456;DHT22;9357;49.900;8.208;2024-01-30T03:18:41;3.10;99.90
18456;DHT22;9357;49.900;8.208;2024-01-30T03:20:14;3.10;99.90
18456;DHT22;9357;49.900;8.208;2024-01-30T03:21:46;3.10;99.90
18456;DHT22;9357;49.900;8.208;2024-01-30T03:23:20;3.10;99.90
18456;DHT22;9357;49.900;8.208;2024-01-30T03:24:52;3.10;99.90
18456;DHT22;9357;49.900;8.208;2024-01-30T03:26:24;3.10;99.90
18456;DHT22;9357;49.900;8.208;2024-01-30T03:27:56;3.10;99.90
18456;DHT22;9357;49.900;8.208;2024-01-30T03:29:29;3.10;99.90
18456;DHT22;9357;49.900;8.208;2024-01-30T03:31:01;3.10;99.90
18456;DHT22;9357;49.900;8.208;2024-01-30T03:32:34;3.10;99.90
18456;DHT22;9357;49.900;8.208;2024-01-30T03:34:05;3.10;99.90
18456;DHT22;9357;49.900;8.208;2024-01-30T03:35:38;3.10;99.90
18456;DHT22;9357;49.900;8.208;2024-01-30T03:37:10;3.10;99.90
18456;DHT22;9357;49.900;8.208;2024-01-30T03:38:44;3.10;99.90
18456;DHT22;9357;49.900;8.208;2024-01-30T03:40:16;3.10;99.90
18456;DHT22;9357;49.900;8.208;2024-01-30T03:41:49;3.10;99.90
18456;DHT22;9357;49.900;8.208;2024-01-30T03:43:21;3.10;99.90
18456;DHT22;9357;49.900;8.208;2024-01-30T03:44:53;3.10;99.90
18456;DHT22;9357;49.900;8.208;2024-01-30T03:46:26;3.10;99.90
18456;DHT22;9357;49.900;8.208;2024-01-30T03:47:58;3.10;99.90
18456;DHT22;9357;49.900;8.208;2024-01-30T03:49:31;3.10;99.90
18456;DHT22;9357;49.900;8.208;2024-01-30T03:51:03;3.10;99.90
18456;DHT22;9357;49.900;8.208;2024-01-30T03:52:36;3.10;99.90
18456;DHT22;9357;49.900;8.208;2024-01-30T03:54:09;3.10;99.90
18456;DHT22;9357;49.900;8.208;2024-01-30T03:55:42;3.10;99.90
18456;DHT22;9357;49.900;8.208;2024-01-30T03:57:14;3.10;99.90
18456;DHT22;9357;49.900;8.208;2024-01-30T03:58:46;3.10;99.90
18456;DHT22;9357;49.900;8.208;2024-01-30T04:00:18;3.10;99.90
18456;DHT22;9357;49.900;8.208;2024-01-30T04:01:51;3.00;99.90
18456;DHT22;9357;49.900;8.208;2024-01-30T04:03:23;3.00;99.90
18456;DHT22;9357;49.900;8.208;2024-01-30T04:04:56;3.00;99.90
18456;DHT22;9357;49.900;8.208;2024-01-30T04:06:28;3.00;99.90
18456;DHT22;9357;49.900;8.208;2024-01-30T04:08:01;3.00;99.90
18456;DHT22;9357;49.900;8.208;2024-01-30T04:09:34;3.00;99.90
18456;DHT22;9357;49.900;8.208;2024-01-30T04:11:07;3.00;99.90
18456;DHT22;9357;49.900;8.208;2024-01-30T04:12:39;3.00;99.90
18456;DHT22;9357;49.900;8.208;2024-01-30T04:14:11;3.00;99.90
18456;DHT22;9357;49.900;8.208;2024-01-30T04:15:43;3.00;99.90
18456;DHT22;9357;49.900;8.208;2024-01-30T04:17:16;3.00;99.90
18456;DHT22;9357;49.900;8.208;2024-01-30T04:18:48;3.00;99.90
18456;DHT22;9357;49.900;8.208;2024-01-30T04:20:21;3.00;99.90
18456;DHT22;9357;49.900;8.208;2024-01-30T04:21:53;3.00;99.90
18456;DHT22;9357;49.900;8.208;2024-01-30T04:23:25;3.00;99.90
18456;DHT22;9357;49.900;8.208;2024-01-30T04:24:58;3.00;99.90
18456;DHT22;9357;49.900;8.208;2024-01-30T04:26:31;3.00;99.90
18456;DHT22;9357;49.900;8.208;2024-01-30T04:28:03;3.00;99.90
18456;DHT22;9357;49.900;8.208;2024-01-30T04:29:36;3.00;99.90
18456;DHT22;9357;49.900;8.208;2024-01-30T04:31:09;3.00;99.90
18456;DHT22;9357;49.900;8.208;2024-01-30T04:32:41;3.10;99.90
18456;DHT22;9357;49.900;8.208;2024-01-30T04:34:14;3.10;99.90
18456;DHT22;9357;49.900;8.208;2024-01-30T04:35:46;3.00;99.90
18456;DHT22;9357;49.900;8.208;2024-01-30T04:37:18;3.10;99.90
18456;DHT22;9357;49.900;8.208;2024-01-30T04:38:51;2.90;99.90
18456;DHT22;9357;49.900;8.208;2024-01-30T04:40:25;3.00;99.90
18456;DHT22;9357;49.900;8.208;2024-01-30T04:41:58;3.00;99.90
18456;DHT22;9357;49.900;8.208;2024-01-30T04:43:30;2.90;99.90
18456;DHT22;9357;49.900;8.208;2024-01-30T04:45:03;3.00;99.90
18456;DHT22;9357;49.900;8.208;2024-01-30T04:46:36;2.90;99.90
18456;DHT22;9357;49.900;8.208;2024-01-30T04:48:08;2.90;99.90
18456;DHT22;9357;49.900;8.208;2024-01-30T04:49:41;2.90;99.90
18456;DHT22;9357;49.900;8.208;2024-01-30T04:51:13;2.90;99.90
18456;DHT22;9357;49.900;8.208;2024-01-30T04:52:45;2.90;99.90
18456;DHT22;9357;49.900;8.208;2024-01-30T04:54:17;2.90;99.90
18456;DHT22;9357;49.900;8.208;2024-01-30T04:55:51;2.90;99.90
18456;DHT22;9357;49.900;8.208;2024-01-30T04:57:24;2.90;99.90
18456;DHT22;9357;49.900;8.208;2024-01-30T04:58:56;2.90;99.90
18456;DHT22;9357;49.900;8.208;2024-01-30T05:00:28;2.80;99.90
18456;DHT22;9357;49.900;8.208;2024-01-30T05:02:01;2.80;99.90
18456;DHT22;9357;49.900;8.208;2024-01-30T05:03:33;2.80;99.90
18456;DHT22;9357;49.900;8.208;2024-01-30T05:05:06;2.80;99.90
18456;DHT22;9357;49.900;8.208;2024-01-30T05:06:40;2.80;99.90
18456;DHT22;9357;49.900;8.208;2024-01-30T05:08:12;2.70;99.90
18456;DHT22;9357;49.900;8.208;2024-01-30T05:09:44;2.70;99.90
18456;DHT22;9357;49.900;8.208;2024-01-30T05:11:17;2.70;99.90
18456;DHT22;9357;49.900;8.208;2024-01-30T05:12:50;2.70;99.90
18456;DHT22;9357;49.900;8.208;2024-01-30T05:14:22;2.70;99.90
18456;DHT22;9357;49.900;8.208;2024-01-30T05:15:55;2.70;99.90
18456;DHT22;9357;49.900;8.208;2024-01-30T05:17:27;2.70;99.90
18456;DHT22;9357;49.900;8.208;2024-01-30T05:19:00;2.70;99.90
18456;DHT22;9357;49.900;8.208;2024-01-30T05:20:34;2.70;99.90
18456;DHT22;9357;49.900;8.208;2024-01-30T05:22:06;2.70;99.90
18456;DHT22;9357;49.900;8.208;2024-01-30T05:23:38;2.70;99.90
18456;DHT22;9357;49.900;8.208;2024-01-30T05:25:13;2.70;99.90
18456;DHT22;9357;49.900;8.208;2024-01-30T05:26:46;2.70;99.90
18456;DHT22;9357;49.900;8.208;2024-01-30T05:28:19;2.70;99.90
18456;DHT22;9357;49.900;8.208;2024-01-30T05:29:51;2.70;99.90
18456;DHT22;9357;49.900;8.208;2024-01-30T05:31:24;2.70;99.90
18456;DHT22;9357;49.900;8.208;2024-01-30T05:32:57;2.70;99.90
18456;DHT22;9357;49.900;8.208;2024-01-30T05:34:30;2.70;99.90
18456;DHT22;9357;49.900;8.208;2024-01-30T05:36:02;2.60;99.90
18456;DHT22;9357;49.900;8.208;2024-01-30T05:37:35;2.60;99.90
18456;DHT22;9357;49.900;8.208;2024-01-30T05:39:07;2.60;99.90
18456;DHT22;9357;49.900;8.208;2024-01-30T05:40:40;2.60;99.90
18456;DHT22;9357;49.900;8.208;2024-01-30T05:42:13;2.60;99.90
18456;DHT22;9357;49.900;8.208;2024-01-30T05:43:46;2.60;99.90
18456;DHT22;9357;49.900;8.208;2024-01-30T05:45:18;2.60;99.90
18456;DHT22;9357;49.900;8.208;2024-01-30T05:46:51;2.60;99.90
18456;DHT22;9357;49.900;8.208;2024-01-30T05:48:23;2.70;99.90
18456;DHT22;9357;49.900;8.208;2024-01-30T05:49:56;2.60;99.90
18456;DHT22;9357;49.900;8.208;2024-01-30T05:51:27;2.60;99.90
18456;DHT22;9357;49.900;8.208;2024-01-30T05:53:01;2.60;99.90
18456;DHT22;9357;49.900;8.208;2024-01-30T05:54:32;2.60;99.90
18456;DHT22;9357;49.900;8.208;2024-01-30T05:56:06;2.60;99.90
18456;DHT22;9357;49.900;8.208;2024-01-30T05:57:39;2.60;99.90
18456;DHT22;9357;49.900;8.208;2024-01-30T05:59:12;2.60;99.90
18456;DHT22;9357;49.900;8.208;2024-01-30T06:00:44;2.60;99.90
18456;DHT22;9357;49.900;8.208;2024-01-30T06:02:16;2.60;99.90
18456;DHT22;9357;49.900;8.208;2024-01-30T06:03:48;2.60;99.90
18456;DHT22;9357;49.900;8.208;2024-01-30T06:05:21;2.60;99.90
18456;DHT22;9357;49.900;8.208;2024-01-30T06:06:53;2.60;99.90
18456;DHT22;9357;49.900;8.208;2024-01-30T06:08:26;2.60;99.90
18456;DHT22;9357;49.900;8.208;2024-01-30T06:09:58;2.60;99.90
18456;DHT22;9357;49.900;8.208;2024-01-30T06:11:32;2.60;99.90
18456;DHT22;9357;49.900;8.208;2024-01-30T06:13:05;2.50;99.90
18456;DHT22;9357;49.900;8.208;2024-01-30T06:14:38;2.50;99.90
18456;DHT22;9357;49.900;8.208;2024-01-30T06:16:10;2.60;99.90
18456;DHT22;9357;49.900;8.208;2024-01-30T06:17:43;2.60;99.90
18456;DHT22;9357;49.900;8.208;2024-01-30T06:19:15;2.60;99.90
18456;DHT22;9357;49.900;8.208;2024-01-30T06:20:48;2.60;99.90
18456;DHT22;9357;49.900;8.208;2024-01-30T06:22:20;2.50;99.90
18456;DHT22;9357;49.900;8.208;2024-01-30T06:23:53;2.50;99.90
18456;DHT22;9357;49.900;8.208;2024-01-30T06:25:25;2.50;99.90
18456;DHT22;9357;49.900;8.208;2024-01-30T06:26:58;2.50;99.90
18456;DHT22;9357;49.900;8.208;2024-01-30T06:28:31;2.50;99.90
18456;DHT22;9357;49.900;8.208;2024-01-30T06:30:04;2.50;99.90
18456;DHT22;9357;49.900;8.208;2024-01-30T06:31:40;2.50;99.90
18456;DHT22;9357;49.900;8.208;2024-01-30T06:33:13;2.50;99.90
18456;DHT22;9357;49.900;8.208;2024-01-30T06:34:45;2.50;99.90
18456;DHT22;9357;49.900;8.208;2024-01-30T06:36:17;2.50;99.90
18456;DHT22;9357;49.900;8.208;2024-01-30T06:37:49;2.50;99.90
18456;DHT22;9357;49.900;8.208;2024-01-30T06:39:22;2.50;99.90
18456;DHT22;9357;49.900;8.208;2024-01-30T06:40:54;2.50;99.90
18456;DHT22;9357;49.900;8.208;2024-01-30T06:42:27;2.50;99.90
18456;DHT22;9357;49.900;8.208;2024-01-30T06:44:02;2.50;99.90
18456;DHT22;9357;49.900;8.208;2024-01-30T06:45:35;2.50;99.90
18456;DHT22;9357;49.900;8.208;2024-01-30T06:47:07;2.50;99.90
18456;DHT22;9357;49.900;8.208;2024-01-30T06:48:40;2.40;99.90
18456;DHT22;9357;49.900;8.208;2024-01-30T06:50:12;2.40;99.90
18456;DHT22;9357;49.900;8.208;2024-01-30T06:51:45;2.40;99.90
18456;DHT22;9357;49.900;8.208;2024-01-30T06:53:16;2.40;99.90
18456;DHT22;9357;49.900;8.208;2024-01-30T06:54:49;2.40;99.90
18456;DHT22;9357;49.900;8.208;2024-01-30T06:56:21;2.30;99.90
18456;DHT22;9357;49.900;8.208;2024-01-30T06:57:54;2.30;99.90
18456;DHT22;9357;49.900;8.208;2024-01-30T06:59:27;2.30;99.90
18456;DHT22;9357;49.900;8.208;2024-01-30T07:01:00;2.30;99.90
18456;DHT22;9357;49.900;8.208;2024-01-30T07:02:32;2.30;99.90
18456;DHT22;9357;49.900;8.208;2024-01-30T07:04:04;2.30;99.90
18456;DHT22;9357;49.900;8.208;2024-01-30T07:05:36;2.30;99.90
18456;DHT22;9357;49.900;8.208;2024-01-30T07:07:09;2.30;99.90
18456;DHT22;9357;49.900;8.208;2024-01-30T07:08:44;2.30;99.90
18456;DHT22;9357;49.900;8.208;2024-01-30T07:10:16;2.30;99.90
18456;DHT22;9357;49.900;8.208;2024-01-30T07:11:48;2.30;99.90
18456;DHT22;9357;49.900;8.208;2024-01-30T07:13:21;2.30;99.90
18456;DHT22;9357;49.900;8.208;2024-01-30T07:14:55;2.40;99.90
18456;DHT22;9357;49.900;8.208;2024-01-30T07:16:28;2.40;99.90
18456;DHT22;9357;49.900;8.208;2024-01-30T07:18:01;2.40;99.90
18456;DHT22;9357;49.900;8.208;2024-01-30T07:19:33;2.40;99.90
18456;DHT22;9357;49.900;8.208;2024-01-30T07:21:06;2.40;99.90
18456;DHT22;9357;49.900;8.208;2024-01-30T07:22:38;2.40;99.90
18456;DHT22;9357;49.900;8.208;2024-01-30T07:24:10;2.40;99.90
18456;DHT22;9357;49.900;8.208;2024-01-30T07:25:42;2.40;99.90
18456;DHT22;9357;49.900;8.208;2024-01-30T07:27:18;2.40;99.90
18456;DHT22;9357;49.900;8.208;2024-01-30T07:28:50;2.40;99.90
18456;DHT22;9357;49.900;8.208;2024-01-30T07:30:24;2.40;99.90
18456;DHT22;9357;49.900;8.208;2024-01-30T07:31:56;2.40;99.90
18456;DHT22;9357;49.900;8.208;2024-01-30T07:33:28;2.40;99.90
18456;DHT22;9357;49.900;8.208;2024-01-30T07:35:01;2.40;99.90
18456;DHT22;9357;49.900;8.208;2024-01-30T07:36:39;2.40;99.90
18456;DHT22;9357;49.900;8.208;2024-01-30T07:38:12;2.50;99.90
18456;DHT22;9357;49.900;8.208;2024-01-30T07:39:44;2.50;99.90
18456;DHT22;9357;49.900;8.208;2024-01-30T07:41:17;2.40;99.90
18456;DHT22;9357;49.900;8.208;2024-01-30T07:42:48;2.40;99.90
18456;DHT22;9357;49.900;8.208;2024-01-30T07:44:22;2.40;99.90
18456;DHT22;9357;49.900;8.208;2024-01-30T07:45:55;2.30;99.90
18456;DHT22;9357;49.900;8.208;2024-01-30T07:47:28;2.30;99.90
18456;DHT22;9357;49.900;8.208;2024-01-30T07:48:59;2.40;99.90
18456;DHT22;9357;49.900;8.208;2024-01-30T07:50:33;2.40;99.90
18456;DHT22;9357;49.900;8.208;2024-01-30T07:52:05;2.40;99.90
18456;DHT22;9357;49.900;8.208;2024-01-30T07:53:38;2.40;99.90
18456;DHT22;9357;49.900;8.208;2024-01-30T07:55:10;2.40;99.90
18456;DHT22;9357;49.900;8.208;2024-01-30T07:56:44;2.50;99.90
18456;DHT22;9357;49.900;8.208;2024-01-30T07:58:16;2.50;99.90
18456;DHT22;9357;49.900;8.208;2024-01-30T07:59:48;2.50;99.90
18456;DHT22;9357;49.900;8.208;2024-01-30T08:01:21;2.60;99.90
18456;DHT22;9357;49.900;8.208;2024-01-30T08:02:54;2.60;99.90
18456;DHT22;9357;49.900;8.208;2024-01-30T08:04:27;2.60;99.90
18456;DHT22;9357;49.900;8.208;2024-01-30T08:06:00;2.60;99.90
18456;DHT22;9357;49.900;8.208;2024-01-30T08:07:31;2.60;99.90
18456;DHT22;9357;49.900;8.208;2024-01-30T08:09:04;2.60;99.90
18456;DHT22;9357;49.900;8.208;2024-01-30T08:10:36;2.60;99.90
18456;DHT22;9357;49.900;8.208;2024-01-30T08:12:09;2.60;99.90
18456;DHT22;9357;49.900;8.208;2024-01-30T08:13:41;2.60;99.90
18456;DHT22;9357;49.900;8.208;2024-01-30T08:15:13;2.60;99.90
18456;DHT22;9357;49.900;8.208;2024-01-30T08:16:47;2.70;99.90
18456;DHT22;9357;49.900;8.208;2024-01-30T08:18:19;2.70;99.90
18456;DHT22;9357;49.900;8.208;2024-01-30T08:19:51;2.60;99.90
18456;DHT22;9357;49.900;8.208;2024-01-30T08:21:24;2.60;99.90
18456;DHT22;9357;49.900;8.208;2024-01-30T08:22:56;2.60;99.90
18456;DHT22;9357;49.900;8.208;2024-01-30T08:24:28;2.60;99.90
18456;DHT22;9357;49.900;8.208;2024-01-30T08:26:00;2.70;99.90
18456;DHT22;9357;49.900;8.208;2024-01-30T08:27:34;2.70;99.90
18456;DHT22;9357;49.900;8.208;2024-01-30T08:29:06;2.70;99.90
18456;DHT22;9357;49.900;8.208;2024-01-30T08:30:39;2.80;99.90
18456;DHT22;9357;49.900;8.208;2024-01-30T08:32:13;2.80;99.90
18456;DHT22;9357;49.900;8.208;2024-01-30T08:33:45;2.80;99.90
18456;DHT22;9357;49.900;8.208;2024-01-30T08:35:20;2.80;99.90
18456;DHT22;9357;49.900;8.208;2024-01-30T08:36:52;2.90;99.90
18456;DHT22;9357;49.900;8.208;2024-01-30T08:38:25;2.90;99.90
18456;DHT22;9357;49.900;8.208;2024-01-30T08:39:57;2.90;99.90
18456;DHT22;9357;49.900;8.208;2024-01-30T08:41:30;2.90;99.90
18456;DHT22;9357;49.900;8.208;2024-01-30T08:43:02;2.90;99.90
18456;DHT22;9357;49.900;8.208;2024-01-30T08:44:35;2.90;99.90
18456;DHT22;9357;49.900;8.208;2024-01-30T08:46:07;3.00;99.90
18456;DHT22;9357;49.900;8.208;2024-01-30T08:47:41;3.00;99.90
18456;DHT22;9357;49.900;8.208;2024-01-30T08:49:13;3.00;99.90
18456;DHT22;9357;49.900;8.208;2024-01-30T08:50:48;3.00;99.90
18456;DHT22;9357;49.900;8.208;2024-01-30T08:52:20;3.00;99.90
18456;DHT22;9357;49.900;8.208;2024-01-30T08:53:53;3.00;99.90
18456;DHT22;9357;49.900;8.208;2024-01-30T08:55:25;3.10;99.90
18456;DHT22;9357;49.900;8.208;2024-01-30T08:56:58;3.10;99.90
18456;DHT22;9357;49.900;8.208;2024-01-30T08:58:30;3.10;99.90
18456;DHT22;9357;49.900;8.208;2024-01-30T09:00:04;3.10;99.90
18456;DHT22;9357;49.900;8.208;2024-01-30T09:01:38;3.10;99.90
18456;DHT22;9357;49.900;8.208;2024-01-30T09:03:14;3.20;99.90
18456;DHT22;9357;49.900;8.208;2024-01-30T09:04:46;3.20;99.90
18456;DHT22;9357;49.900;8.208;2024-01-30T09:06:18;3.20;99.90
18456;DHT22;9357;49.900;8.208;2024-01-30T09:07:51;3.20;99.90
18456;DHT22;9357;49.900;8.208;2024-01-30T09:09:23;3.30;99.90
18456;DHT22;9357;49.900;8.208;2024-01-30T09:10:56;3.30;99.90
18456;DHT22;9357;49.900;8.208;2024-01-30T09:12:28;3.30;99.90
18456;DHT22;9357;49.900;8.208;2024-01-30T09:14:00;3.30;99.90
18456;DHT22;9357;49.900;8.208;2024-01-30T09:15:32;3.40;99.90
18456;DHT22;9357;49.900;8.208;2024-01-30T09:17:05;3.40;99.90
18456;DHT22;9357;49.900;8.208;2024-01-30T09:18:38;3.40;99.90
18456;DHT22;9357;49.900;8.208;2024-01-30T09:20:11;3.50;99.90
18456;DHT22;9357;49.900;8.208;2024-01-30T09:21:44;3.50;99.90
18456;DHT22;9357;49.900;8.208;2024-01-30T09:23:16;3.50;99.90
18456;DHT22;9357;49.900;8.208;2024-01-30T09:24:51;3.50;99.90
18456;DHT22;9357;49.900;8.208;2024-01-30T09:26:22;3.50;99.90
18456;DHT22;9357;49.900;8.208;2024-01-30T09:27:57;3.60;99.90
18456;DHT22;9357;49.900;8.208;2024-01-30T09:29:30;3.60;99.90
18456;DHT22;9357;49.900;8.208;2024-01-30T09:31:02;3.60;99.90
18456;DHT22;9357;49.900;8.208;2024-01-30T09:32:35;3.60;99.90
18456;DHT22;9357;49.900;8.208;2024-01-30T09:34:08;3.60;99.90
18456;DHT22;9357;49.900;8.208;2024-01-30T09:35:41;3.60;99.90
18456;DHT22;9357;49.900;8.208;2024-01-30T09:37:13;3.60;99.90
18456;DHT22;9357;49.900;8.208;2024-01-30T09:38:49;3.60;99.90
18456;DHT22;9357;49.900;8.208;2024-01-30T09:40:21;3.60;99.90
18456;DHT22;9357;49.900;8.208;2024-01-30T09:42:00;3.60;99.90
18456;DHT22;9357;49.900;8.208;2024-01-30T09:43:34;3.70;99.90
18456;DHT22;9357;49.900;8.208;2024-01-30T09:45:07;3.70;99.90
18456;DHT22;9357;49.900;8.208;2024-01-30T09:46:40;3.70;99.90
18456;DHT22;9357;49.900;8.208;2024-01-30T09:48:13;3.70;99.90
18456;DHT22;9357;49.900;8.208;2024-01-30T09:49:46;3.70;99.90
18456;DHT22;9357;49.900;8.208;2024-01-30T09:51:21;3.80;99.90
18456;DHT22;9357;49.900;8.208;2024-01-30T09:52:55;3.80;99.90
18456;DHT22;9357;49.900;8.208;2024-01-30T09:54:30;3.80;99.90
18456;DHT22;9357;49.900;8.208;2024-01-30T09:56:06;3.90;99.90
18456;DHT22;9357;49.900;8.208;2024-01-30T09:57:39;3.90;99.90
18456;DHT22;9357;49.900;8.208;2024-01-30T09:59:11;4.00;99.90
18456;DHT22;9357;49.900;8.208;2024-01-30T10:00:43;4.00;99.90
18456;DHT22;9357;49.900;8.208;2024-01-30T10:02:16;4.00;99.90
18456;DHT22;9357;49.900;8.208;2024-01-30T10:03:50;4.00;99.90
18456;DHT22;9357;49.900;8.208;2024-01-30T10:05:27;4.00;99.90